sensor_id;sensor_type;location;lat;lon;timestamp;temperature;humidity
26186;DHT22;20067;48.764;9.176;2022-11-20T00:02:19;7.20;91.30
26186;DHT22;20067;48.764;9.176;2022-11-20T00:04:45;7.20;91.30
26186;DHT22;20067;48.764;9.176;2022-11-20T00:07:10;7.20;91.30
26186;DHT22;20067;48.764;9.176;2022-11-20T00:09:36;7.10;91.30
26186;DHT22;20067;48.764;9.176;2022-11-20T00:12:01;7.20;91.30
26186;DHT22;20067;48.764;9.176;2022-11-20T00:14:27;7.20;91.30
26186;DHT22;20067;48.764;9.176;2022-11-20T00:16:53;7.30;91.30
26186;DHT22;20067;48.764;9.176;2022-11-20T00:19:18;7.30;91.30
26186;DHT22;20067;48.764;9.176;2022-11-20T00:21:44;7.30;91.30
26186;DHT22;20067;48.764;9.176;2022-11-20T00:24:09;7.30;91.30
26186;DHT22;20067;48.764;9.176;2022-11-20T00:26:35;7.30;91.30
26186;DHT22;20067;48.764;9.176;2022-11-20T00:29:02;7.30;91.30
26186;DHT22;20067;48.764;9.176;2022-11-20T00:31:28;7.30;91.30
26186;DHT22;20067;48.764;9.176;2022-11-20T00:33:54;7.30;91.30
26186;DHT22;20067;48.764;9.176;2022-11-20T00:36:25;7.20;91.30
26186;DHT22;20067;48.764;9.176;2022-11-20T00:38:53;7.20;91.30
26186;DHT22;20067;48.764;9.176;2022-11-20T00:41:19;7.20;91.30
26186;DHT22;20067;48.764;9.176;2022-11-20T00:43:44;7.30;91.30
26186;DHT22;20067;48.764;9.176;2022-11-20T00:46:17;7.20;91.30
26186;DHT22;20067;48.764;9.176;2022-11-20T00:48:44;7.30;91.30
26186;DHT22;20067;48.764;9.176;2022-11-20T00:51:12;7.30;91.30
26186;DHT22;20067;48.764;9.176;2022-11-20T00:53:38;7.30;91.30
26186;DHT22;20067;48.764;9.176;2022-11-20T00:56:06;7.30;91.30
26186;DHT22;20067;48.764;9.176;2022-11-20T00:58:37;7.10;91.30
26186;DHT22;20067;48.764;9.176;2022-11-20T01:01:11;7.10;91.30
26186;DHT22;20067;48.764;9.176;2022-11-20T01:03:40;7.10;91.30
26186;DHT22;20067;48.764;9.176;2022-11-20T01:06:11;7.10;91.30
26186;DHT22;20067;48.764;9.176;2022-11-20T01:08:37;7.20;91.30
26186;DHT22;20067;48.764;9.176;2022-11-20T01:11:06;7.20;91.30
26186;DHT22;20067;48.764;9.176;2022-11-20T01:13:32;7.20;91.30
26186;DHT22;20067;48.764;9.176;2022-11-20T01:18:36;7.20;91.30
26186;DHT22;20067;48.764;9.176;2022-11-20T01:21:07;7.30;91.30
26186;DHT22;20067;48.764;9.176;2022-11-20T01:23:35;7.20;91.30
26186;DHT22;20067;48.764;9.176;2022-11-20T01:26:12;7.20;91.30
26186;DHT22;20067;48.764;9.176;2022-11-20T01:28:39;7.20;91.30
26186;DHT22;20067;48.764;9.176;2022-11-20T01:33:42;7.20;91.30
26186;DHT22;20067;48.764;9.176;2022-11-20T01:36:09;7.20;91.30
26186;DHT22;20067;48.764;9.176;2022-11-20T01:38:35;7.20;91.30
26186;DHT22;20067;48.764;9.176;2022-11-20T01:41:01;7.20;91.30
26186;DHT22;20067;48.764;9.176;2022-11-20T01:43:27;7.20;91.30
26186;DHT22;20067;48.764;9.176;2022-11-20T01:46:15;7.20;91.30
26186;DHT22;20067;48.764;9.176;2022-11-20T01:51:38;7.10;91.30
26186;DHT22;20067;48.764;9.176;2022-11-20T01:54:09;7.00;91.30
26186;DHT22;20067;48.764;9.176;2022-11-20T01:56:40;7.00;91.30
26186;DHT22;20067;48.764;9.176;2022-11-20T01:59:08;7.00;91.30
26186;DHT22;20067;48.764;9.176;2022-11-20T02:01:36;6.90;91.30
26186;DHT22;20067;48.764;9.176;2022-11-20T02:04:02;6.90;91.30
26186;DHT22;20067;48.764;9.176;2022-11-20T02:07:00;6.90;91.30
26186;DHT22;20067;48.764;9.176;2022-11-20T02:09:26;6.90;91.30
26186;DHT22;20067;48.764;9.176;2022-11-20T02:11:53;7.00;91.30
26186;DHT22;20067;48.764;9.176;2022-11-20T02:14:20;6.90;91.30
26186;DHT22;20067;48.764;9.176;2022-11-20T02:16:48;6.90;91.30
26186;DHT22;20067;48.764;9.176;2022-11-20T02:19:35;6.90;91.30
26186;DHT22;20067;48.764;9.176;2022-11-20T02:22:14;6.80;91.30
26186;DHT22;20067;48.764;9.176;2022-11-20T02:24:43;6.80;91.30
26186;DHT22;20067;48.764;9.176;2022-11-20T02:27:13;6.80;91.30
26186;DHT22;20067;48.764;9.176;2022-11-20T02:29:57;6.80;91.30
26186;DHT22;20067;48.764;9.176;2022-11-20T02:32:31;6.90;91.30
26186;DHT22;20067;48.764;9.176;2022-11-20T02:34:57;6.80;91.30
26186;DHT22;20067;48.764;9.176;2022-11-20T02:37:26;6.80;91.30
26186;DHT22;20067;48.764;9.176;2022-11-20T02:39:56;6.90;91.30
26186;DHT22;20067;48.764;9.176;2022-11-20T02:42:21;6.80;91.30
26186;DHT22;20067;48.764;9.176;2022-11-20T02:44:47;6.80;91.30
26186;DHT22;20067;48.764;9.176;2022-11-20T02:47:12;6.70;91.30
26186;DHT22;20067;48.764;9.176;2022-11-20T02:49:38;6.60;91.30
26186;DHT22;20067;48.764;9.176;2022-11-20T02:52:04;6.60;91.30
26186;DHT22;20067;48.764;9.176;2022-11-20T02:54:29;6.70;91.30
26186;DHT22;20067;48.764;9.176;2022-11-20T02:56:55;6.80;91.30
26186;DHT22;20067;48.764;9.176;2022-11-20T02:59:20;6.80;91.30
26186;DHT22;20067;48.764;9.176;2022-11-20T03:01:46;6.90;91.30
26186;DHT22;20067;48.764;9.176;2022-11-20T03:04:11;6.90;91.30
26186;DHT22;20067;48.764;9.176;2022-11-20T03:06:37;6.90;91.30
26186;DHT22;20067;48.764;9.176;2022-11-20T03:09:03;6.90;91.30
26186;DHT22;20067;48.764;9.176;2022-11-20T03:11:28;7.00;91.30
26186;DHT22;20067;48.764;9.176;2022-11-20T03:13:54;7.00;91.30
26186;DHT22;20067;48.764;9.176;2022-11-20T03:16:22;7.00;91.30
26186;DHT22;20067;48.764;9.176;2022-11-20T03:18:48;7.00;91.30
26186;DHT22;20067;48.764;9.176;2022-11-20T03:21:15;6.90;91.30
26186;DHT22;20067;48.764;9.176;2022-11-20T03:23:41;6.90;91.30
26186;DHT22;20067;48.764;9.176;2022-11-20T03:26:27;6.80;91.30
26186;DHT22;20067;48.764;9.176;2022-11-20T03:29:01;6.70;91.30
26186;DHT22;20067;48.764;9.176;2022-11-20T03:31:29;6.60;91.30
26186;DHT22;20067;48.764;9.176;2022-11-20T03:33:56;6.60;91.30
26186;DHT22;20067;48.764;9.176;2022-11-20T03:36:22;6.60;91.30
26186;DHT22;20067;48.764;9.176;2022-11-20T03:38:48;6.50;91.30
26186;DHT22;20067;48.764;9.176;2022-11-20T03:41:19;6.50;91.30
26186;DHT22;20067;48.764;9.176;2022-11-20T03:46:19;6.40;91.30
26186;DHT22;20067;48.764;9.176;2022-11-20T03:48:45;6.40;91.30
26186;DHT22;20067;48.764;9.176;2022-11-20T03:51:16;6.30;91.30
26186;DHT22;20067;48.764;9.176;2022-11-20T03:53:44;6.30;91.30
26186;DHT22;20067;48.764;9.176;2022-11-20T03:56:11;6.30;91.30
26186;DHT22;20067;48.764;9.176;2022-11-20T03:58:38;6.30;91.30
26186;DHT22;20067;48.764;9.176;2022-11-20T04:01:11;6.20;91.30
26186;DHT22;20067;48.764;9.176;2022-11-20T04:03:38;6.20;91.30
26186;DHT22;20067;48.764;9.176;2022-11-20T04:06:06;6.10;91.30
26186;DHT22;20067;48.764;9.176;2022-11-20T04:08:32;6.10;91.30
26186;DHT22;20067;48.764;9.176;2022-11-20T04:14:01;6.00;91.30
26186;DHT22;20067;48.764;9.176;2022-11-20T04:16:35;6.00;91.30
26186;DHT22;20067;48.764;9.176;2022-11-20T04:19:03;6.00;91.30
26186;DHT22;20067;48.764;9.176;2022-11-20T04:21:29;6.10;91.30
26186;DHT22;20067;48.764;9.176;2022-11-20T04:23:55;6.10;91.30
26186;DHT22;20067;48.764;9.176;2022-11-20T04:26:23;6.10;91.30
26186;DHT22;20067;48.764;9.176;2022-11-20T04:28:49;6.10;91.30
26186;DHT22;20067;48.764;9.176;2022-11-20T04:31:17;6.10;91.30
26186;DHT22;20067;48.764;9.176;2022-11-20T04:33:43;6.00;91.30
26186;DHT22;20067;48.764;9.176;2022-11-20T04:36:12;6.00;91.30
26186;DHT22;20067;48.764;9.176;2022-11-20T04:38:39;6.00;91.30
26186;DHT22;20067;48.764;9.176;2022-11-20T04:41:06;6.10;91.30
26186;DHT22;20067;48.764;9.176;2022-11-20T04:43:33;6.20;91.30
26186;DHT22;20067;48.764;9.176;2022-11-20T04:45:59;6.20;91.30
26186;DHT22;20067;48.764;9.176;2022-11-20T04:48:26;6.20;91.30
26186;DHT22;20067;48.764;9.176;2022-11-20T04:50:52;6.20;91.30
26186;DHT22;20067;48.764;9.176;2022-11-20T04:53:19;6.20;91.30
26186;DHT22;20067;48.764;9.176;2022-11-20T04:55:45;6.30;91.30
26186;DHT22;20067;48.764;9.176;2022-11-20T04:58:11;6.30;91.30
26186;DHT22;20067;48.764;9.176;2022-11-20T05:00:36;6.40;91.30
26186;DHT22;20067;48.764;9.176;2022-11-20T05:03:02;6.40;91.30
26186;DHT22;20067;48.764;9.176;2022-11-20T05:05:28;6.50;91.30
26186;DHT22;20067;48.764;9.176;2022-11-20T05:07:56;6.40;91.30
26186;DHT22;20067;48.764;9.176;2022-11-20T05:10:21;6.40;91.30
26186;DHT22;20067;48.764;9.176;2022-11-20T05:12:47;6.50;91.30
26186;DHT22;20067;48.764;9.176;2022-11-20T05:15:13;6.50;91.30
26186;DHT22;20067;48.764;9.176;2022-11-20T05:17:38;6.50;91.30
26186;DHT22;20067;48.764;9.176;2022-11-20T05:20:04;6.60;91.30
26186;DHT22;20067;48.764;9.176;2022-11-20T05:22:30;6.60;91.30
26186;DHT22;20067;48.764;9.176;2022-11-20T05:24:55;6.60;91.30
26186;DHT22;20067;48.764;9.176;2022-11-20T05:27:21;6.70;91.30
26186;DHT22;20067;48.764;9.176;2022-11-20T05:29:46;6.70;91.30
26186;DHT22;20067;48.764;9.176;2022-11-20T05:32:12;6.70;91.30
26186;DHT22;20067;48.764;9.176;2022-11-20T05:34:38;6.70;91.30
26186;DHT22;20067;48.764;9.176;2022-11-20T05:37:03;6.70;91.30
26186;DHT22;20067;48.764;9.176;2022-11-20T05:39:29;6.60;91.30
26186;DHT22;20067;48.764;9.176;2022-11-20T05:41:54;6.60;91.30
26186;DHT22;20067;48.764;9.176;2022-11-20T05:44:39;6.50;91.30
26186;DHT22;20067;48.764;9.176;2022-11-20T05:47:05;6.50;91.30
26186;DHT22;20067;48.764;9.176;2022-11-20T05:49:31;6.50;91.30
26186;DHT22;20067;48.764;9.176;2022-11-20T05:51:56;6.50;91.30
26186;DHT22;20067;48.764;9.176;2022-11-20T05:54:22;6.50;91.30
26186;DHT22;20067;48.764;9.176;2022-11-20T05:56:48;6.50;91.30
26186;DHT22;20067;48.764;9.176;2022-11-20T05:59:13;6.50;91.30
26186;DHT22;20067;48.764;9.176;2022-11-20T06:01:39;6.60;91.30
26186;DHT22;20067;48.764;9.176;2022-11-20T06:04:04;6.60;91.30
26186;DHT22;20067;48.764;9.176;2022-11-20T06:06:30;6.60;91.30
26186;DHT22;20067;48.764;9.176;2022-11-20T06:08:55;6.50;91.30
26186;DHT22;20067;48.764;9.176;2022-11-20T06:11:21;6.50;91.30
26186;DHT22;20067;48.764;9.176;2022-11-20T06:13:47;6.50;91.30
26186;DHT22;20067;48.764;9.176;2022-11-20T06:16:15;6.50;91.30
26186;DHT22;20067;48.764;9.176;2022-11-20T06:18:41;6.50;91.30
26186;DHT22;20067;48.764;9.176;2022-11-20T06:21:13;6.50;91.30
26186;DHT22;20067;48.764;9.176;2022-11-20T06:23:39;6.50;91.30
26186;DHT22;20067;48.764;9.176;2022-11-20T06:26:10;6.50;91.30
26186;DHT22;20067;48.764;9.176;2022-11-20T06:28:36;6.60;91.30
26186;DHT22;20067;48.764;9.176;2022-11-20T06:31:02;6.60;91.30
26186;DHT22;20067;48.764;9.176;2022-11-20T06:33:28;6.60;91.30
26186;DHT22;20067;48.764;9.176;2022-11-20T06:35:57;6.60;91.30
26186;DHT22;20067;48.764;9.176;2022-11-20T06:38:24;6.60;91.30
26186;DHT22;20067;48.764;9.176;2022-11-20T06:40:49;6.60;91.30
26186;DHT22;20067;48.764;9.176;2022-11-20T06:43:15;6.60;91.30
26186;DHT22;20067;48.764;9.176;2022-11-20T06:45:41;6.70;91.30
26186;DHT22;20067;48.764;9.176;2022-11-20T06:48:06;6.80;91.30
26186;DHT22;20067;48.764;9.176;2022-11-20T06:50:32;6.80;91.30
26186;DHT22;20067;48.764;9.176;2022-11-20T06:53:01;6.80;91.30
26186;DHT22;20067;48.764;9.176;2022-11-20T06:55:27;6.80;91.30
26186;DHT22;20067;48.764;9.176;2022-11-20T06:57:53;6.80;91.30
26186;DHT22;20067;48.764;9.176;2022-11-20T07:00:19;6.70;91.30
26186;DHT22;20067;48.764;9.176;2022-11-20T07:02:44;6.80;91.30
26186;DHT22;20067;48.764;9.176;2022-11-20T07:05:10;6.70;91.30
26186;DHT22;20067;48.764;9.176;2022-11-20T07:07:35;6.80;91.30
26186;DHT22;20067;48.764;9.176;2022-11-20T07:10:01;6.80;91.30
26186;DHT22;20067;48.764;9.176;2022-11-20T07:12:26;6.80;91.30
26186;DHT22;20067;48.764;9.176;2022-11-20T07:14:52;6.80;91.30
26186;DHT22;20067;48.764;9.176;2022-11-20T07:17:18;6.90;91.30
26186;DHT22;20067;48.764;9.176;2022-11-20T07:19:43;6.90;91.30
26186;DHT22;20067;48.764;9.176;2022-11-20T07:22:09;6.90;91.30
26186;DHT22;20067;48.764;9.176;2022-11-20T07:24:35;6.90;91.30
26186;DHT22;20067;48.764;9.176;2022-11-20T07:27:00;6.90;91.30
26186;DHT22;20067;48.764;9.176;2022-11-20T07:29:26;6.90;91.30
26186;DHT22;20067;48.764;9.176;2022-11-20T07:31:51;6.90;91.30
26186;DHT22;20067;48.764;9.176;2022-11-20T07:34:17;7.00;91.30
26186;DHT22;20067;48.764;9.176;2022-11-20T07:36:42;7.00;91.30
26186;DHT22;20067;48.764;9.176;2022-11-20T07:39:08;7.00;91.30
26186;DHT22;20067;48.764;9.176;2022-11-20T07:41:34;7.10;91.30
26186;DHT22;20067;48.764;9.176;2022-11-20T07:43:59;7.20;91.30
26186;DHT22;20067;48.764;9.176;2022-11-20T07:46:25;7.20;91.30
26186;DHT22;20067;48.764;9.176;2022-11-20T07:48:50;7.20;91.30
26186;DHT22;20067;48.764;9.176;2022-11-20T07:51:16;7.20;91.30
26186;DHT22;20067;48.764;9.176;2022-11-20T07:53:42;7.20;91.30
26186;DHT22;20067;48.764;9.176;2022-11-20T07:56:07;7.20;91.30
26186;DHT22;20067;48.764;9.176;2022-11-20T07:58:33;7.20;91.30
26186;DHT22;20067;48.764;9.176;2022-11-20T08:01:07;7.30;91.30
26186;DHT22;20067;48.764;9.176;2022-11-20T08:03:33;7.30;91.30
26186;DHT22;20067;48.764;9.176;2022-11-20T08:06:01;7.40;91.30
26186;DHT22;20067;48.764;9.176;2022-11-20T08:08:28;7.30;91.30
26186;DHT22;20067;48.764;9.176;2022-11-20T08:10:54;7.30;91.30
26186;DHT22;20067;48.764;9.176;2022-11-20T08:13:39;7.30;91.30
26186;DHT22;20067;48.764;9.176;2022-11-20T08:16:23;7.30;91.30
26186;DHT22;20067;48.764;9.176;2022-11-20T08:18:49;7.30;91.30
26186;DHT22;20067;48.764;9.176;2022-11-20T08:21:15;7.40;91.30
26186;DHT22;20067;48.764;9.176;2022-11-20T08:23:40;7.40;91.30
26186;DHT22;20067;48.764;9.176;2022-11-20T08:26:06;7.40;91.30
26186;DHT22;20067;48.764;9.176;2022-11-20T08:28:31;7.40;91.30
26186;DHT22;20067;48.764;9.176;2022-11-20T08:30:59;7.40;91.30
26186;DHT22;20067;48.764;9.176;2022-11-20T08:33:25;7.50;91.30
26186;DHT22;20067;48.764;9.176;2022-11-20T08:35:51;7.60;91.30
26186;DHT22;20067;48.764;9.176;2022-11-20T08:38:16;7.60;91.30
26186;DHT22;20067;48.764;9.176;2022-11-20T08:40:42;7.60;91.30
26186;DHT22;20067;48.764;9.176;2022-11-20T08:43:27;7.60;91.30
26186;DHT22;20067;48.764;9.176;2022-11-20T08:45:53;7.60;91.30
26186;DHT22;20067;48.764;9.176;2022-11-20T08:48:21;7.60;91.30
26186;DHT22;20067;48.764;9.176;2022-11-20T08:50:48;7.60;91.30
26186;DHT22;20067;48.764;9.176;2022-11-20T08:53:13;7.70;91.30
26186;DHT22;20067;48.764;9.176;2022-11-20T08:55:39;7.80;91.30
26186;DHT22;20067;48.764;9.176;2022-11-20T08:58:05;8.00;91.30
26186;DHT22;20067;48.764;9.176;2022-11-20T09:00:32;8.00;91.30
26186;DHT22;20067;48.764;9.176;2022-11-20T09:02:57;8.30;91.30
26186;DHT22;20067;48.764;9.176;2022-11-20T09:05:24;8.40;91.30
26186;DHT22;20067;48.764;9.176;2022-11-20T09:07:49;8.40;91.30
26186;DHT22;20067;48.764;9.176;2022-11-20T09:10:15;8.30;91.30
26186;DHT22;20067;48.764;9.176;2022-11-20T09:12:41;8.20;91.30
26186;DHT22;20067;48.764;9.176;2022-11-20T09:15:07;8.20;91.30
26186;DHT22;20067;48.764;9.176;2022-11-20T09:17:32;8.20;91.30
26186;DHT22;20067;48.764;9.176;2022-11-20T09:19:58;8.20;91.30
26186;DHT22;20067;48.764;9.176;2022-11-20T09:22:24;8.20;91.30
26186;DHT22;20067;48.764;9.176;2022-11-20T09:24:49;8.20;91.30
26186;DHT22;20067;48.764;9.176;2022-11-20T09:27:15;8.30;91.30
26186;DHT22;20067;48.764;9.176;2022-11-20T09:29:45;8.40;91.30
26186;DHT22;20067;48.764;9.176;2022-11-20T09:32:11;8.40;91.30
26186;DHT22;20067;48.764;9.176;2022-11-20T09:34:37;8.30;91.30
26186;DHT22;20067;48.764;9.176;2022-11-20T09:37:02;8.20;91.30
26186;DHT22;20067;48.764;9.176;2022-11-20T09:39:28;8.10;91.30
26186;DHT22;20067;48.764;9.176;2022-11-20T09:50:19;8.30;91.30
26186;DHT22;20067;48.764;9.176;2022-11-20T09:55:57;8.30;91.30
26186;DHT22;20067;48.764;9.176;2022-11-20T09:58:41;8.30;91.30
26186;DHT22;20067;48.764;9.176;2022-11-20T10:01:15;8.30;91.30
26186;DHT22;20067;48.764;9.176;2022-11-20T10:06:13;8.40;91.30
26186;DHT22;20067;48.764;9.176;2022-11-20T10:20:00;8.10;91.30
26186;DHT22;20067;48.764;9.176;2022-11-20T10:22:49;8.10;91.30
26186;DHT22;20067;48.764;9.176;2022-11-20T10:25:33;8.20;91.30
26186;DHT22;20067;48.764;9.176;2022-11-20T10:30:50;8.10;91.30
26186;DHT22;20067;48.764;9.176;2022-11-20T10:33:23;8.10;91.30
26186;DHT22;20067;48.764;9.176;2022-11-20T10:36:08;8.10;91.30
26186;DHT22;20067;48.764;9.176;2022-11-20T10:39:00;8.10;91.30
26186;DHT22;20067;48.764;9.176;2022-11-20T10:41:41;7.90;91.30
26186;DHT22;20067;48.764;9.176;2022-11-20T10:44:15;7.90;91.30
26186;DHT22;20067;48.764;9.176;2022-11-20T10:47:01;7.90;91.30
26186;DHT22;20067;48.764;9.176;2022-11-20T10:49:30;7.90;91.30
26186;DHT22;20067;48.764;9.176;2022-11-20T10:52:13;7.80;91.30
26186;DHT22;20067;48.764;9.176;2022-11-20T11:00:10;7.80;91.30
26186;DHT22;20067;48.764;9.176;2022-11-20T11:02:49;7.80;91.30
26186;DHT22;20067;48.764;9.176;2022-11-20T11:07:49;7.90;91.30
26186;DHT22;20067;48.764;9.176;2022-11-20T11:10:24;7.90;91.30
26186;DHT22;20067;48.764;9.176;2022-11-20T11:12:50;7.80;91.30
26186;DHT22;20067;48.764;9.176;2022-11-20T11:17:54;7.80;91.30
26186;DHT22;20067;48.764;9.176;2022-11-20T11:20:22;7.80;91.30
26186;DHT22;20067;48.764;9.176;2022-11-20T11:22:51;7.80;91.30
26186;DHT22;20067;48.764;9.176;2022-11-20T11:27:54;8.10;91.30
26186;DHT22;20067;48.764;9.176;2022-11-20T11:30:21;8.20;91.30
26186;DHT22;20067;48.764;9.176;2022-11-20T11:32:48;8.40;91.30
26186;DHT22;20067;48.764;9.176;2022-11-20T11:35:27;8.60;91.30
26186;DHT22;20067;48.764;9.176;2022-11-20T11:38:03;8.90;91.30
26186;DHT22;20067;48.764;9.176;2022-11-20T11:40:32;9.20;91.30
26186;DHT22;20067;48.764;9.176;2022-11-20T11:43:01;9.20;91.30
26186;DHT22;20067;48.764;9.176;2022-11-20T11:45:28;9.30;91.30
26186;DHT22;20067;48.764;9.176;2022-11-20T11:47:57;9.30;91.30
26186;DHT22;20067;48.764;9.176;2022-11-20T11:50:25;9.40;91.30
26186;DHT22;20067;48.764;9.176;2022-11-20T11:58:40;9.40;91.30
26186;DHT22;20067;48.764;9.176;2022-11-20T12:01:24;9.40;91.30
26186;DHT22;20067;48.764;9.176;2022-11-20T12:04:50;9.30;91.30
26186;DHT22;20067;48.764;9.176;2022-11-20T12:07:01;9.30;91.30
26186;DHT22;20067;48.764;9.176;2022-11-20T12:09:37;9.20;91.30
26186;DHT22;20067;48.764;9.176;2022-11-20T12:12:15;9.30;91.30
26186;DHT22;20067;48.764;9.176;2022-11-20T12:14:46;9.50;91.30
26186;DHT22;20067;48.764;9.176;2022-11-20T12:17:13;9.70;90.30
26186;DHT22;20067;48.764;9.176;2022-11-20T12:19:39;9.70;91.10
26186;DHT22;20067;48.764;9.176;2022-11-20T12:25:28;9.90;90.40
26186;DHT22;20067;48.764;9.176;2022-11-20T12:30:26;9.90;89.20
26186;DHT22;20067;48.764;9.176;2022-11-20T12:33:24;9.80;89.20
26186;DHT22;20067;48.764;9.176;2022-11-20T12:44:41;9.90;85.00
26186;DHT22;20067;48.764;9.176;2022-11-20T12:50:03;9.70;83.60
26186;DHT22;20067;48.764;9.176;2022-11-20T12:52:45;9.70;82.50
26186;DHT22;20067;48.764;9.176;2022-11-20T12:58:29;9.80;82.20
26186;DHT22;20067;48.764;9.176;2022-11-20T13:02:19;9.80;83.20
26186;DHT22;20067;48.764;9.176;2022-11-20T13:06:44;10.20;80.60
26186;DHT22;20067;48.764;9.176;2022-11-20T13:09:13;10.10;80.60
26186;DHT22;20067;48.764;9.176;2022-11-20T13:11:57;10.00;80.80
26186;DHT22;20067;48.764;9.176;2022-11-20T13:14:41;9.90;80.40
26186;DHT22;20067;48.764;9.176;2022-11-20T13:19:33;9.90;80.70
26186;DHT22;20067;48.764;9.176;2022-11-20T13:21:59;9.90;80.50
26186;DHT22;20067;48.764;9.176;2022-11-20T13:24:27;9.90;81.00
26186;DHT22;20067;48.764;9.176;2022-11-20T13:29:44;10.00;80.50
26186;DHT22;20067;48.764;9.176;2022-11-20T13:32:18;9.80;79.90
26186;DHT22;20067;48.764;9.176;2022-11-20T13:34:56;9.70;80.00
26186;DHT22;20067;48.764;9.176;2022-11-20T13:37:32;9.70;80.10
26186;DHT22;20067;48.764;9.176;2022-11-20T13:42:38;9.40;80.70
26186;DHT22;20067;48.764;9.176;2022-11-20T13:45:26;9.40;81.70
26186;DHT22;20067;48.764;9.176;2022-11-20T13:47:53;9.30;81.70
26186;DHT22;20067;48.764;9.176;2022-11-20T13:56:11;9.40;83.30
26186;DHT22;20067;48.764;9.176;2022-11-20T13:58:44;9.50;83.20
26186;DHT22;20067;48.764;9.176;2022-11-20T14:01:24;9.50;82.70
26186;DHT22;20067;48.764;9.176;2022-11-20T14:03:52;9.40;83.30
26186;DHT22;20067;48.764;9.176;2022-11-20T14:06:42;9.30;84.80
26186;DHT22;20067;48.764;9.176;2022-11-20T14:09:12;9.20;86.20
26186;DHT22;20067;48.764;9.176;2022-11-20T14:11:46;9.10;86.80
26186;DHT22;20067;48.764;9.176;2022-11-20T14:14:18;9.00;86.80
26186;DHT22;20067;48.764;9.176;2022-11-20T14:16:45;9.00;87.90
26186;DHT22;20067;48.764;9.176;2022-11-20T14:21:46;9.00;87.70
26186;DHT22;20067;48.764;9.176;2022-11-20T14:24:13;8.90;88.70
26186;DHT22;20067;48.764;9.176;2022-11-20T14:26:43;8.90;88.60
26186;DHT22;20067;48.764;9.176;2022-11-20T14:29:29;8.80;88.50
26186;DHT22;20067;48.764;9.176;2022-11-20T14:31:58;8.80;88.40
26186;DHT22;20067;48.764;9.176;2022-11-20T14:34:29;8.80;88.50
26186;DHT22;20067;48.764;9.176;2022-11-20T14:37:04;8.70;88.40
26186;DHT22;20067;48.764;9.176;2022-11-20T14:39:35;8.80;87.70
26186;DHT22;20067;48.764;9.176;2022-11-20T14:42:01;8.70;87.40
26186;DHT22;20067;48.764;9.176;2022-11-20T14:44:32;8.70;87.60
26186;DHT22;20067;48.764;9.176;2022-11-20T14:47:00;8.70;86.80
26186;DHT22;20067;48.764;9.176;2022-11-20T14:49:29;8.70;86.40
26186;DHT22;20067;48.764;9.176;2022-11-20T14:52:15;8.60;86.60
26186;DHT22;20067;48.764;9.176;2022-11-20T14:54:48;8.60;86.80
26186;DHT22;20067;48.764;9.176;2022-11-20T14:57:23;8.60;87.10
26186;DHT22;20067;48.764;9.176;2022-11-20T14:59:49;8.60;87.60
26186;DHT22;20067;48.764;9.176;2022-11-20T15:02:15;8.60;87.70
26186;DHT22;20067;48.764;9.176;2022-11-20T15:04:57;8.60;87.70
26186;DHT22;20067;48.764;9.176;2022-11-20T15:07:28;8.60;87.70
26186;DHT22;20067;48.764;9.176;2022-11-20T15:12:26;8.30;88.20
26186;DHT22;20067;48.764;9.176;2022-11-20T15:14:52;8.30;88.70
26186;DHT22;20067;48.764;9.176;2022-11-20T15:17:17;8.30;89.20
26186;DHT22;20067;48.764;9.176;2022-11-20T15:19:43;8.30;89.60
26186;DHT22;20067;48.764;9.176;2022-11-20T15:22:12;8.20;90.20
26186;DHT22;20067;48.764;9.176;2022-11-20T15:24:44;8.10;90.90
26186;DHT22;20067;48.764;9.176;2022-11-20T15:27:10;8.00;91.30
26186;DHT22;20067;48.764;9.176;2022-11-20T15:29:36;8.00;91.30
26186;DHT22;20067;48.764;9.176;2022-11-20T15:32:02;7.90;91.30
26186;DHT22;20067;48.764;9.176;2022-11-20T15:34:28;7.90;91.30
26186;DHT22;20067;48.764;9.176;2022-11-20T15:36:54;7.90;91.30
26186;DHT22;20067;48.764;9.176;2022-11-20T15:39:20;7.90;91.30
26186;DHT22;20067;48.764;9.176;2022-11-20T15:41:46;7.90;91.30
26186;DHT22;20067;48.764;9.176;2022-11-20T15:44:12;7.90;91.30
26186;DHT22;20067;48.764;9.176;2022-11-20T15:49:13;7.90;91.30
26186;DHT22;20067;48.764;9.176;2022-11-20T15:51:44;7.80;91.30
26186;DHT22;20067;48.764;9.176;2022-11-20T15:54:20;7.80;91.30
26186;DHT22;20067;48.764;9.176;2022-11-20T15:56:50;7.80;91.30
26186;DHT22;20067;48.764;9.176;2022-11-20T15:59:17;7.80;91.30
26186;DHT22;20067;48.764;9.176;2022-11-20T16:01:43;7.80;91.30
26186;DHT22;20067;48.764;9.176;2022-11-20T16:04:14;7.70;91.30
26186;DHT22;20067;48.764;9.176;2022-11-20T16:06:40;7.70;91.30
26186;DHT22;20067;48.764;9.176;2022-11-20T16:09:06;7.80;91.30
26186;DHT22;20067;48.764;9.176;2022-11-20T16:11:32;7.70;91.30
26186;DHT22;20067;48.764;9.176;2022-11-20T16:13:58;7.70;91.30
26186;DHT22;20067;48.764;9.176;2022-11-20T16:16:43;7.70;91.30
26186;DHT22;20067;48.764;9.176;2022-11-20T16:19:12;7.70;91.30
26186;DHT22;20067;48.764;9.176;2022-11-20T16:21:38;7.70;91.30
26186;DHT22;20067;48.764;9.176;2022-11-20T16:24:10;7.70;91.30
26186;DHT22;20067;48.764;9.176;2022-11-20T16:26:38;7.70;91.30
26186;DHT22;20067;48.764;9.176;2022-11-20T16:29:04;7.60;91.30
26186;DHT22;20067;48.764;9.176;2022-11-20T16:31:31;7.60;91.30
26186;DHT22;20067;48.764;9.176;2022-11-20T16:34:05;7.60;91.30
26186;DHT22;20067;48.764;9.176;2022-11-20T16:36:32;7.60;91.30
26186;DHT22;20067;48.764;9.176;2022-11-20T16:39:02;7.50;91.30
26186;DHT22;20067;48.764;9.176;2022-11-20T16:41:30;7.50;91.30
26186;DHT22;20067;48.764;9.176;2022-11-20T16:43:58;7.50;91.30
26186;DHT22;20067;48.764;9.176;2022-11-20T16:46:26;7.50;91.30
26186;DHT22;20067;48.764;9.176;2022-11-20T16:49:05;7.50;91.30
26186;DHT22;20067;48.764;9.176;2022-11-20T16:51:33;7.60;91.30
26186;DHT22;20067;48.764;9.176;2022-11-20T16:54:07;7.60;91.30
26186;DHT22;20067;48.764;9.176;2022-11-20T16:56:33;7.70;91.30
26186;DHT22;20067;48.764;9.176;2022-11-20T16:58:59;7.70;91.30
26186;DHT22;20067;48.764;9.176;2022-11-20T17:01:27;7.70;91.30
26186;DHT22;20067;48.764;9.176;2022-11-20T17:03:58;7.70;91.30
26186;DHT22;20067;48.764;9.176;2022-11-20T17:06:30;7.70;91.30
26186;DHT22;20067;48.764;9.176;2022-11-20T17:08:56;7.70;91.30
26186;DHT22;20067;48.764;9.176;2022-11-20T17:11:22;7.70;91.30
26186;DHT22;20067;48.764;9.176;2022-11-20T17:13:48;7.70;91.30
26186;DHT22;20067;48.764;9.176;2022-11-20T17:16:17;7.70;91.30
26186;DHT22;20067;48.764;9.176;2022-11-20T17:18:43;7.80;91.30
26186;DHT22;20067;48.764;9.176;2022-11-20T17:21:09;7.80;91.30
26186;DHT22;20067;48.764;9.176;2022-11-20T17:23:37;7.80;91.30
26186;DHT22;20067;48.764;9.176;2022-11-20T17:26:05;7.80;91.30
26186;DHT22;20067;48.764;9.176;2022-11-20T17:28:31;7.80;91.30
26186;DHT22;20067;48.764;9.176;2022-11-20T17:31:15;7.70;91.30
26186;DHT22;20067;48.764;9.176;2022-11-20T17:33:43;7.70;91.30
26186;DHT22;20067;48.764;9.176;2022-11-20T17:36:11;7.70;91.30
26186;DHT22;20067;48.764;9.176;2022-11-20T17:38:37;7.70;91.30
26186;DHT22;20067;48.764;9.176;2022-11-20T17:41:13;7.70;91.30
26186;DHT22;20067;48.764;9.176;2022-11-20T17:43:40;7.70;91.30